Weather at Hatzerim Northwest Airport

Public forecast

Using degrees Celsius for public forecast. Weather courtesy of forecast.io.

Closest aviation weather report (METAR) to Hatzerim Northwest Airport

Report is more than 6 hours old.

Closest report is El Arish International Airport, 42.7 nm (79.1 km) WSW.

2024/07/11 08:00 (retrieved 2 days ago)

HEAR 110800Z 06003KT CAVOK 33/24 Q1007 NOSIG

Closest aviation forecast (TAF) to Hatzerim Northwest Airport

Forecast is more than 12 hours old.

Closest forecast is El Jora Airport, 27.3 nm (50.6 km) WSW.

2024/07/12 12:00 (retrieved 13 hours ago)

TAF HEGR 121100Z 1212/1318 02008KT CAVOK